Time;durP1;ratioP1;P1;durP2;ratioP2;P2;SDS_P1;SDS_P2;PMS_P1;PMS_P2;Temp;Humidity;BMP_temperature;BMP_pressure;BME280_temperature;BME280_humidity;BME280_pressure;Samples;Min_cycle;Max_cycle;Signal;HPM_P1;HPM_P2
2021/06/01 00:01:31;;;;;;;1.25;1.05;;;22.20;47.40;;;;;;4918102;28;20039;-80
2021/06/01 00:03:57;;;;;;;1.17;1.00;;;22.20;47.40;;;;;;4968713;28;20361;-80
2021/06/01 00:06:23;;;;;;;2.53;1.25;;;22.10;47.40;;;;;;4949465;28;20037;-80
2021/06/01 00:08:49;;;;;;;1.63;1.15;;;22.10;47.50;;;;;;4931952;29;20469;-80
2021/06/01 00:11:15;;;;;;;1.27;1.17;;;22.10;47.50;;;;;;4939672;28;20095;-80
2021/06/01 00:13:42;;;;;;;1.15;1.05;;;22.00;47.50;;;;;;4947321;28;20046;-80
2021/06/01 00:16:10;;;;;;;1.77;1.05;;;22.00;47.50;;;;;;4967488;28;20049;-80
2021/06/01 00:18:36;;;;;;;1.27;1.17;;;22.00;47.60;;;;;;4969582;28;20501;-80
2021/06/01 00:21:02;;;;;;;1.20;1.02;;;22.00;47.60;;;;;;4948478;28;20027;-80
2021/06/01 00:23:28;;;;;;;1.70;1.25;;;22.00;47.60;;;;;;4951917;28;20448;-80
2021/06/01 00:25:54;;;;;;;1.20;1.10;;;21.90;47.60;;;;;;4946608;28;20054;-81
2021/06/01 00:28:20;;;;;;;1.35;1.10;;;21.80;47.60;;;;;;4960976;28;20027;-80
2021/06/01 00:30:46;;;;;;;1.02;0.90;;;21.80;47.60;;;;;;4952693;28;20037;-81
2021/06/01 00:33:12;;;;;;;1.30;1.20;;;21.80;47.70;;;;;;4964514;28;20031;-80
2021/06/01 00:35:38;;;;;;;1.20;1.05;;;21.80;47.70;;;;;;4956479;28;20490;-79
2021/06/01 00:38:07;;;;;;;1.50;1.02;;;21.70;47.70;;;;;;4974807;28;20384;-79
2021/06/01 00:40:34;;;;;;;1.65;1.17;;;21.70;47.70;;;;;;4948464;28;20035;-79
2021/06/01 00:42:59;;;;;;;1.52;1.08;;;21.70;47.70;;;;;;4977803;28;20114;-77
2021/06/01 00:45:27;;;;;;;1.13;1.05;;;21.60;47.70;;;;;;4950143;28;20123;-79
2021/06/01 00:47:53;;;;;;;1.80;1.23;;;21.60;47.80;;;;;;4969773;28;20034;-80
2021/06/01 00:50:25;;;;;;;1.83;1.33;;;21.60;47.80;;;;;;4969083;28;20511;-81
2021/06/01 00:52:51;;;;;;;1.92;1.10;;;21.60;47.80;;;;;;4964241;28;20078;-79
2021/06/01 00:55:17;;;;;;;1.33;1.13;;;21.60;47.90;;;;;;4942703;28;20031;-80
2021/06/01 00:57:43;;;;;;;1.60;1.27;;;21.50;47.90;;;;;;4954717;28;20030;-79
2021/06/01 01:00:20;;;;;;;1.50;1.10;;;21.50;47.80;;;;;;4956077;28;20049;-80
2021/06/01 01:02:45;;;;;;;1.13;1.00;;;21.40;47.80;;;;;;4962923;28;20069;-80
2021/06/01 01:05:13;;;;;;;1.25;1.00;;;21.40;47.80;;;;;;4950362;28;20453;-79
2021/06/01 01:07:46;;;;;;;1.52;1.20;;;21.40;47.80;;;;;;4956262;28;20035;-80
2021/06/01 01:10:13;;;;;;;1.63;1.20;;;21.40;47.80;;;;;;4969770;28;20034;-79
2021/06/01 01:12:49;;;;;;;1.55;1.10;;;21.40;47.80;;;;;;4964660;28;20038;-80
2021/06/01 01:15:16;;;;;;;1.40;1.30;;;21.30;47.70;;;;;;4959248;28;20034;-80
2021/06/01 01:17:46;;;;;;;1.83;1.20;;;21.30;47.80;;;;;;4950940;28;20105;-79
2021/06/01 01:20:47;;;;;;;2.28;1.33;;;21.20;47.80;;;;;;4954664;28;20027;-80
2021/06/01 01:23:16;;;;;;;0.95;0.93;;;21.20;47.90;;;;;;4967594;28;20027;-80
2021/06/01 01:25:47;;;;;;;2.38;1.40;;;21.20;47.80;;;;;;4966992;28;20467;-80
2021/06/01 01:28:30;;;;;;;1.30;1.20;;;21.10;47.90;;;;;;4950142;28;20038;-80
2021/06/01 01:31:01;;;;;;;1.70;1.20;;;21.10;47.90;;;;;;4932948;29;20038;-79
2021/06/01 01:33:32;;;;;;;1.08;1.00;;;21.10;47.90;;;;;;4955636;28;20162;-79
2021/06/01 01:36:04;;;;;;;2.20;1.50;;;21.00;48.00;;;;;;4954618;28;20058;-79
2021/06/01 01:38:31;;;;;;;2.17;1.38;;;21.00;48.00;;;;;;4952254;28;20065;-80
2021/06/01 01:41:10;;;;;;;1.40;1.10;;;21.00;48.00;;;;;;4953912;28;20039;-79
2021/06/01 01:43:42;;;;;;;1.88;1.20;;;21.00;48.00;;;;;;4957950;28;20028;-80
2021/06/01 01:46:15;;;;;;;1.45;1.20;;;20.90;48.00;;;;;;4966500;28;20027;-79
2021/06/01 01:51:45;;;;;;;1.77;1.05;;;20.90;48.00;;;;;;4924304;29;20544;-80
2021/06/01 01:54:16;;;;;;;1.30;1.20;;;20.90;48.10;;;;;;4942975;28;20052;-80
2021/06/01 01:56:46;;;;;;;2.38;1.35;;;20.80;48.10;;;;;;4950612;28;20105;-80
2021/06/01 01:59:32;;;;;;;1.65;1.30;;;20.80;48.10;;;;;;4936830;28;20041;-80
2021/06/01 02:01:59;;;;;;;1.70;1.20;;;20.80;48.10;;;;;;4964128;28;20038;-80
2021/06/01 02:04:28;;;;;;;2.03;1.40;;;20.70;48.10;;;;;;4951450;28;20043;-80
2021/06/01 02:06:57;;;;;;;1.30;1.05;;;20.70;48.20;;;;;;4959787;28;20027;-80
2021/06/01 02:09:23;;;;;;;1.90;1.20;;;20.70;48.20;;;;;;4966739;28;20074;-79
2021/06/01 02:11:49;;;;;;;1.60;1.10;;;20.70;48.20;;;;;;4956001;28;20039;-80
2021/06/01 02:14:16;;;;;;;1.45;1.13;;;20.60;48.20;;;;;;4949663;28;20129;-80
2021/06/01 02:16:42;;;;;;;1.15;1.05;;;20.60;48.30;;;;;;4963582;28;20078;-79
2021/06/01 02:19:14;;;;;;;3.38;1.30;;;20.60;48.30;;;;;;4935182;28;20031;-80
2021/06/01 02:24:20;;;;;;;1.73;1.30;;;20.50;48.30;;;;;;4949025;28;20031;-79
2021/06/01 02:26:53;;;;;;;1.63;1.30;;;20.50;48.30;;;;;;4953716;28;20441;-79
2021/06/01 02:29:30;;;;;;;1.38;1.10;;;20.40;48.30;;;;;;4963534;28;20056;-79
2021/06/01 02:31:57;;;;;;;1.70;1.42;;;20.40;48.30;;;;;;4961559;28;20054;-80
2021/06/01 02:34:25;;;;;;;1.40;1.30;;;20.40;48.30;;;;;;4961546;28;20118;-79
2021/06/01 02:36:52;;;;;;;1.60;1.30;;;20.40;48.40;;;;;;4942049;28;20508;-79
2021/06/01 02:39:20;;;;;;;1.30;1.20;;;20.30;48.30;;;;;;4958678;28;20129;-79
2021/06/01 02:41:48;;;;;;;1.30;1.20;;;20.30;48.40;;;;;;4960030;28;20103;-80
2021/06/01 02:44:14;;;;;;;1.30;1.20;;;20.30;48.40;;;;;;4958046;28;20023;-80
2021/06/01 02:46:41;;;;;;;1.80;1.33;;;20.30;48.40;;;;;;4961581;28;20034;-80
2021/06/01 02:49:08;;;;;;;2.13;1.35;;;20.20;48.40;;;;;;4962705;28;20532;-81
2021/06/01 02:51:36;;;;;;;1.65;1.30;;;20.20;48.40;;;;;;4957579;28;20037;-80
2021/06/01 02:54:04;;;;;;;2.28;1.38;;;20.20;48.50;;;;;;4935770;29;20039;-81
2021/06/01 02:56:31;;;;;;;1.63;1.30;;;20.20;48.50;;;;;;4944330;28;20256;-81
2021/06/01 02:58:58;;;;;;;1.80;1.10;;;20.10;48.50;;;;;;4960647;28;20035;-81
2021/06/01 03:01:25;;;;;;;1.38;1.27;;;20.10;48.50;;;;;;4944572;28;20050;-80
2021/06/01 03:03:52;;;;;;;2.33;1.63;;;20.10;48.60;;;;;;4951319;28;20106;-81
2021/06/01 03:06:21;;;;;;;1.77;1.27;;;20.10;48.60;;;;;;4965595;28;20023;-81
2021/06/01 03:08:47;;;;;;;1.70;1.25;;;20.00;48.60;;;;;;4964996;28;20411;-81
2021/06/01 03:11:16;;;;;;;1.70;1.30;;;20.00;48.60;;;;;;4943819;28;20042;-81
2021/06/01 03:13:45;;;;;;;1.85;1.33;;;20.00;48.70;;;;;;4930455;29;20044;-80
2021/06/01 03:16:12;;;;;;;1.38;1.20;;;19.90;48.70;;;;;;4958176;28;20043;-80
2021/06/01 03:18:38;;;;;;;1.83;1.48;;;19.90;48.70;;;;;;4945223;28;20086;-80
2021/06/01 03:21:04;;;;;;;1.73;1.30;;;19.90;48.70;;;;;;4930452;28;21252;-81
2021/06/01 03:23:31;;;;;;;1.40;1.30;;;19.80;48.70;;;;;;4935430;28;20031;-80
2021/06/01 03:25:57;;;;;;;1.45;1.20;;;19.80;48.80;;;;;;4956187;28;20058;-81
2021/06/01 03:28:23;;;;;;;2.17;1.20;;;19.80;48.80;;;;;;4937869;28;20035;-81
2021/06/01 03:30:50;;;;;;;1.73;1.40;;;19.80;48.80;;;;;;4962756;28;20388;-81
2021/06/01 03:33:17;;;;;;;1.92;1.60;;;19.70;48.90;;;;;;4940474;28;20031;-80
2021/06/01 03:35:43;;;;;;;1.58;1.30;;;19.70;48.90;;;;;;4968706;28;20045;-81
2021/06/01 03:38:09;;;;;;;1.85;1.50;;;19.70;48.90;;;;;;4952685;28;20035;-81
2021/06/01 03:40:36;;;;;;;1.83;1.40;;;19.70;49.00;;;;;;4961323;28;20031;-81
2021/06/01 03:43:01;;;;;;;1.50;1.38;;;19.60;48.90;;;;;;4950549;28;20023;-80
2021/06/01 03:45:27;;;;;;;1.70;1.20;;;19.60;49.60;;;;;;4952838;28;20034;-81
2021/06/01 03:47:54;;;;;;;2.33;1.40;;;19.60;49.00;;;;;;4953572;28;20026;-81
2021/06/01 03:50:21;;;;;;;2.33;1.45;;;19.50;49.00;;;;;;4926190;29;20038;-80
2021/06/01 03:52:47;;;;;;;2.35;1.40;;;19.50;49.00;;;;;;4961196;28;20041;-81
2021/06/01 03:55:13;;;;;;;2.55;1.63;;;19.50;49.10;;;;;;4953266;28;20499;-80
2021/06/01 03:57:39;;;;;;;2.13;1.40;;;19.50;49.20;;;;;;4956663;28;20443;-80
2021/06/01 04:00:09;;;;;;;1.52;1.20;;;19.40;49.10;;;;;;4953139;28;20026;-80
2021/06/01 04:02:38;;;;;;;1.85;1.40;;;19.40;49.20;;;;;;4972082;28;20043;-80
2021/06/01 04:05:05;;;;;;;1.42;1.20;;;19.40;49.20;;;;;;4961545;28;20437;-80
2021/06/01 04:07:30;;;;;;;1.60;1.20;;;19.40;49.30;;;;;;4946055;28;20030;-80
2021/06/01 04:09:56;;;;;;;1.77;1.48;;;19.30;49.20;;;;;;4922438;29;20440;-81
2021/06/01 04:12:22;;;;;;;2.03;1.50;;;19.30;49.30;;;;;;4950932;28;20032;-79
2021/06/01 04:14:48;;;;;;;1.42;1.33;;;19.30;49.30;;;;;;4966741;28;20034;-80
2021/06/01 04:17:14;;;;;;;1.58;1.38;;;19.20;49.30;;;;;;4940364;28;20031;-80
2021/06/01 04:19:40;;;;;;;1.70;1.42;;;19.20;49.40;;;;;;4939194;28;20031;-79
2021/06/01 04:22:06;;;;;;;2.05;1.60;;;19.20;49.50;;;;;;4932887;28;20035;-80
2021/06/01 04:24:32;;;;;;;2.20;1.60;;;19.20;49.50;;;;;;4937616;28;20035;-79
2021/06/01 04:27:00;;;;;;;1.75;1.30;;;19.20;49.60;;;;;;4947695;28;20055;-81
2021/06/01 04:29:27;;;;;;;2.22;1.40;;;19.20;49.60;;;;;;4984558;28;20114;-81
2021/06/01 04:31:53;;;;;;;1.33;1.23;;;19.10;49.60;;;;;;4978489;28;20027;-80
2021/06/01 04:34:19;;;;;;;2.00;1.45;;;19.10;50.30;;;;;;4965113;28;20101;-78
2021/06/01 04:36:44;;;;;;;1.55;1.45;;;19.10;49.70;;;;;;4971562;28;20046;-77
2021/06/01 04:39:11;;;;;;;1.70;1.40;;;19.00;49.60;;;;;;4937010;28;20030;-78
2021/06/01 04:41:37;;;;;;;1.55;1.35;;;19.00;49.70;;;;;;4966541;28;20058;-79
2021/06/01 04:44:04;;;;;;;2.15;1.48;;;19.00;49.80;;;;;;4984053;28;20030;-81
2021/06/01 04:46:30;;;;;;;1.65;1.27;;;19.00;49.80;;;;;;4984529;28;20031;-81
2021/06/01 04:48:56;;;;;;;1.30;1.15;;;19.00;49.80;;;;;;4987110;28;20392;-81
2021/06/01 04:51:21;;;;;;;2.13;1.50;;;18.90;49.80;;;;;;4953673;28;20034;-79
2021/06/01 04:53:56;;;;;;;2.50;1.50;;;18.90;49.90;;;;;;4962528;28;20047;-79
2021/06/01 04:56:23;;;;;;;2.28;1.38;;;18.90;50.00;;;;;;4976306;28;20546;-79
2021/06/01 04:58:49;;;;;;;1.60;1.30;;;18.90;49.90;;;;;;4963297;28;20097;-79
2021/06/01 05:01:15;;;;;;;1.63;1.48;;;18.90;50.00;;;;;;4953666;28;20060;-83
2021/06/01 05:03:41;;;;;;;2.72;1.38;;;18.80;50.00;;;;;;4970157;28;20045;-84
2021/06/01 05:06:09;;;;;;;1.52;1.35;;;18.80;50.00;;;;;;4973080;28;20019;-83
2021/06/01 05:08:36;;;;;;;1.77;1.52;;;18.80;50.10;;;;;;4935978;28;20038;-82
2021/06/01 05:11:03;;;;;;;2.72;1.65;;;18.80;50.10;;;;;;4965190;28;20022;-86
2021/06/01 05:13:29;;;;;;;2.90;1.58;;;18.80;50.10;;;;;;4934418;28;20038;-85
2021/06/01 05:15:55;;;;;;;2.03;1.55;;;18.70;50.00;;;;;;4955238;28;20039;-85
2021/06/01 05:18:22;;;;;;;1.50;1.40;;;18.80;50.20;;;;;;4982449;28;20027;-87
2021/06/01 05:20:48;;;;;;;2.47;1.42;;;18.80;50.20;;;;;;4949119;28;20551;-84
2021/06/01 05:23:15;;;;;;;1.88;1.50;;;18.80;50.20;;;;;;4972227;28;20122;-82
2021/06/01 05:25:42;;;;;;;1.52;1.42;;;18.70;50.20;;;;;;4956801;28;20094;-81
2021/06/01 05:28:08;;;;;;;1.92;1.38;;;18.70;50.20;;;;;;4965334;28;20284;-82
2021/06/01 05:30:37;;;;;;;1.63;1.50;;;18.70;50.20;;;;;;4980844;28;20030;-82
2021/06/01 05:35:32;;;;;;;1.67;1.55;;;18.70;50.20;;;;;;4972577;28;20113;-86
2021/06/01 05:38:01;;;;;;;1.80;1.40;;;18.70;50.20;;;;;;4986821;28;20042;-87
2021/06/01 05:40:27;;;;;;;2.83;1.65;;;18.70;50.30;;;;;;4969099;28;20074;-86
2021/06/01 05:42:53;;;;;;;2.28;1.70;;;18.70;50.30;;;;;;4951717;28;20027;-83
2021/06/01 05:45:19;;;;;;;1.73;1.50;;;18.70;50.30;;;;;;4952701;28;20511;-85
2021/06/01 05:47:44;;;;;;;1.80;1.50;;;18.70;50.30;;;;;;4970619;28;20031;-85
2021/06/01 05:50:10;;;;;;;2.80;1.60;;;18.70;50.40;;;;;;4926002;28;20122;-85
2021/06/01 05:52:36;;;;;;;2.13;1.70;;;18.70;50.40;;;;;;4969125;28;20035;-85
2021/06/01 05:55:05;;;;;;;2.25;1.70;;;18.70;50.40;;;;;;4924934;28;20372;-84
2021/06/01 05:57:31;;;;;;;2.42;1.73;;;18.60;50.40;;;;;;4957363;28;20094;-87
2021/06/01 05:59:57;;;;;;;2.17;1.63;;;18.70;51.10;;;;;;4969298;28;20037;-86
2021/06/01 06:02:23;;;;;;;2.55;1.63;;;18.60;50.40;;;;;;4957943;28;20027;-85
2021/06/01 06:04:49;;;;;;;1.90;1.60;;;18.60;50.40;;;;;;4972793;28;20046;-88
2021/06/01 06:07:14;;;;;;;2.47;1.58;;;18.70;50.50;;;;;;4972484;28;20125;-89
2021/06/01 06:09:40;;;;;;;2.33;1.73;;;18.70;50.50;;;;;;4967530;28;20384;-87
2021/06/01 06:12:07;;;;;;;2.10;1.70;;;18.70;50.60;;;;;;4955871;28;20034;-88
2021/06/01 06:14:33;;;;;;;2.67;1.63;;;18.70;50.60;;;;;;4940037;28;20034;-87
2021/06/01 06:17:23;;;;;;;2.40;1.73;;;18.70;50.60;;;;;;4950728;28;20392;-87
2021/06/01 06:19:49;;;;;;;2.20;1.70;;;18.60;50.60;;;;;;4969018;28;20028;-87
2021/06/01 06:22:14;;;;;;;2.13;1.58;;;18.70;50.60;;;;;;4971170;28;20042;-86
2021/06/01 06:24:40;;;;;;;1.88;1.65;;;18.70;50.60;;;;;;4949990;28;20081;-90
2021/06/01 06:27:06;;;;;;;2.17;1.70;;;18.60;51.20;;;;;;4936583;28;20043;-86
2021/06/01 06:29:32;;;;;;;1.90;1.60;;;18.70;50.70;;;;;;4950491;28;20045;-84
2021/06/01 06:31:59;;;;;;;2.70;1.70;;;18.60;50.60;;;;;;4941493;28;20041;-86
2021/06/01 06:34:25;;;;;;;2.08;1.67;;;18.70;50.70;;;;;;4980906;28;20041;-86
2021/06/01 06:36:51;;;;;;;2.25;1.70;;;18.70;50.70;;;;;;4961861;28;20035;-88
2021/06/01 06:39:16;;;;;;;2.30;1.58;;;18.70;50.70;;;;;;4955229;28;20030;-88
2021/06/01 06:41:42;;;;;;;2.85;1.90;;;18.70;50.70;;;;;;4951422;28;20035;-90
2021/06/01 06:44:11;;;;;;;2.33;1.77;;;18.70;50.80;;;;;;4964610;28;20058;-86
2021/06/01 06:46:41;;;;;;;2.10;1.60;;;18.70;50.80;;;;;;4972547;28;20023;-88
2021/06/01 06:49:08;;;;;;;2.35;1.65;;;18.70;50.80;;;;;;4948654;28;20027;-89
2021/06/01 06:51:34;;;;;;;1.80;1.60;;;18.70;50.80;;;;;;4977946;28;20098;-89
2021/06/01 06:54:00;;;;;;;2.42;1.70;;;18.80;50.90;;;;;;4943534;28;20035;-87
2021/06/01 06:56:28;;;;;;;3.20;2.00;;;18.70;50.80;;;;;;4956344;28;20097;-87
2021/06/01 06:58:55;;;;;;;1.95;1.60;;;18.70;50.80;;;;;;4979057;28;20069;-90
2021/06/01 07:01:21;;;;;;;2.75;1.75;;;18.80;50.90;;;;;;4946462;28;20031;-89
2021/06/01 07:03:47;;;;;;;2.45;1.90;;;18.80;50.90;;;;;;4955178;28;20042;-91
2021/06/01 07:06:14;;;;;;;2.42;1.95;;;18.80;50.90;;;;;;4956779;28;20035;-89
2021/06/01 07:08:40;;;;;;;3.03;1.88;;;18.80;51.00;;;;;;4967637;28;20037;-87
2021/06/01 07:11:06;;;;;;;3.28;2.10;;;18.80;51.00;;;;;;4969476;28;20528;-88
2021/06/01 07:13:56;;;;;;;2.33;1.83;;;18.80;51.00;;;;;;4972357;28;20049;-87
2021/06/01 07:16:22;;;;;;;2.67;1.92;;;18.80;51.10;;;;;;4950194;28;20038;-88
2021/06/01 07:18:48;;;;;;;2.35;1.73;;;18.80;51.00;;;;;;4987212;28;20040;-94
2021/06/01 07:21:14;;;;;;;2.17;1.73;;;18.80;51.10;;;;;;4969381;28;20039;-86
2021/06/01 07:23:40;;;;;;;3.03;2.08;;;18.90;51.20;;;;;;4938321;28;20031;-89
2021/06/01 07:26:08;;;;;;;3.53;1.92;;;18.90;51.20;;;;;;4946360;28;20035;-93
2021/06/01 07:28:34;;;;;;;2.10;1.67;;;18.90;51.20;;;;;;4955584;28;20081;-83
2021/06/01 07:31:04;;;;;;;2.47;1.88;;;19.00;51.20;;;;;;4944754;28;20039;-86
2021/06/01 07:33:30;;;;;;;2.30;2.00;;;19.00;51.20;;;;;;4954682;28;20031;-87
2021/06/01 07:35:56;;;;;;;3.92;1.98;;;19.00;51.20;;;;;;4948634;28;20089;-86
2021/06/01 07:38:22;;;;;;;2.42;2.03;;;19.10;51.20;;;;;;4967206;28;20034;-86
2021/06/01 07:40:48;;;;;;;2.55;1.77;;;19.10;51.20;;;;;;4949960;28;20066;-86
2021/06/01 07:43:14;;;;;;;2.00;1.80;;;19.20;51.20;;;;;;4977295;28;20023;-84
2021/06/01 07:45:41;;;;;;;2.65;2.00;;;19.20;51.20;;;;;;4959830;28;20034;-87
2021/06/01 07:48:07;;;;;;;2.78;2.08;;;19.30;51.10;;;;;;4954640;28;20026;-85
2021/06/01 07:50:33;;;;;;;2.85;2.10;;;19.30;51.10;;;;;;4954525;28;20030;-86
2021/06/01 07:52:59;;;;;;;2.85;1.90;;;19.40;51.00;;;;;;4932359;29;20066;-85
2021/06/01 07:55:25;;;;;;;2.53;1.90;;;19.40;51.00;;;;;;4975643;28;20486;-84
2021/06/01 07:57:52;;;;;;;3.35;2.05;;;19.50;51.00;;;;;;4962757;28;20110;-85
2021/06/01 08:00:21;;;;;;;3.97;2.13;;;19.60;51.00;;;;;;4961975;28;20037;-84
2021/06/01 08:02:47;;;;;;;3.45;1.90;;;19.70;51.00;;;;;;4952076;28;20472;-85
2021/06/01 08:05:15;;;;;;;2.67;1.80;;;19.70;50.90;;;;;;4954893;28;20149;-85
2021/06/01 08:07:42;;;;;;;2.33;1.88;;;19.80;50.80;;;;;;4942033;29;20027;-86
2021/06/01 08:10:08;;;;;;;2.97;1.95;;;19.90;50.90;;;;;;4940480;29;20091;-85
2021/06/01 08:12:35;;;;;;;2.88;2.13;;;19.90;50.80;;;;;;4939662;29;20095;-86
2021/06/01 08:15:01;;;;;;;2.55;1.92;;;20.00;50.70;;;;;;4952874;28;20035;-85
2021/06/01 08:17:27;;;;;;;3.00;2.10;;;20.10;50.80;;;;;;4940778;28;20119;-87
2021/06/01 08:19:55;;;;;;;2.17;1.90;;;20.20;50.70;;;;;;4933852;28;20102;-86
2021/06/01 08:24:48;;;;;;;2.28;1.80;;;20.40;50.70;;;;;;4957578;28;20047;-86
2021/06/01 08:27:14;;;;;;;3.55;2.10;;;20.40;50.70;;;;;;4971575;28;20042;-86
2021/06/01 08:29:40;;;;;;;3.05;1.80;;;20.50;51.30;;;;;;4924381;29;20055;-84
2021/06/01 08:32:06;;;;;;;2.75;1.92;;;20.60;50.70;;;;;;4954341;28;20022;-85
2021/06/01 08:34:32;;;;;;;3.13;1.98;;;20.70;50.60;;;;;;4964597;28;20041;-86
2021/06/01 08:36:59;;;;;;;2.47;1.80;;;20.80;50.60;;;;;;4968913;28;20031;-82
2021/06/01 08:39:26;;;;;;;2.92;2.13;;;20.90;50.60;;;;;;4954989;28;20055;-87
2021/06/01 08:41:53;;;;;;;2.35;1.70;;;21.00;50.60;;;;;;4957922;28;20034;-86
2021/06/01 08:44:19;;;;;;;2.53;2.08;;;21.00;50.50;;;;;;4919510;29;20035;-86
2021/06/01 08:46:49;;;;;;;2.53;1.95;;;21.10;50.50;;;;;;4969141;28;20427;-85
2021/06/01 08:49:17;;;;;;;1.88;1.50;;;21.20;50.50;;;;;;4940686;28;20031;-85
2021/06/01 08:51:43;;;;;;;2.47;1.73;;;21.30;50.40;;;;;;4948081;28;20117;-85
2021/06/01 08:54:09;;;;;;;3.42;1.90;;;21.40;50.40;;;;;;4930994;28;20113;-85
2021/06/01 08:56:36;;;;;;;3.30;1.80;;;21.50;50.40;;;;;;4962811;28;20043;-85
2021/06/01 08:59:02;;;;;;;2.38;1.67;;;21.60;50.30;;;;;;4973008;28;20041;-84
2021/06/01 09:01:27;;;;;;;3.17;1.88;;;21.70;50.30;;;;;;4957089;28;20464;-86
2021/06/01 09:03:56;;;;;;;3.00;1.83;;;21.70;50.20;;;;;;4939204;29;20439;-85
2021/06/01 09:06:28;;;;;;;3.17;1.80;;;21.90;50.20;;;;;;4971623;28;20173;-85
2021/06/01 09:12:45;;;;;;;2.22;1.60;;;22.10;50.10;;;;;;4971576;28;20074;-84
2021/06/01 09:22:52;;;;;;;1.73;1.58;;;22.50;49.80;;;;;;4943261;28;20036;-82
2021/06/01 09:28:06;;;;;;;2.63;1.70;;;22.70;49.70;;;;;;4972994;28;20133;-82
2021/06/01 09:30:59;;;;;;;3.20;1.95;;;22.80;49.70;;;;;;4921357;28;20089;-82
2021/06/01 09:33:27;;;;;;;2.22;1.65;;;22.90;49.60;;;;;;4966061;28;20035;-83
2021/06/01 09:35:53;;;;;;;2.78;1.90;;;23.00;49.50;;;;;;4937794;29;20031;-82
2021/06/01 09:38:31;;;;;;;2.40;1.52;;;23.10;49.50;;;;;;4945122;28;20023;-83
2021/06/01 09:41:16;;;;;;;1.85;1.60;;;23.20;49.50;;;;;;4955910;28;20028;-81
2021/06/01 09:43:49;;;;;;;2.42;1.65;;;23.30;49.40;;;;;;4965009;28;20030;-83
2021/06/01 09:46:23;;;;;;;3.22;1.67;;;23.40;49.30;;;;;;4971971;28;20511;-80
2021/06/01 09:48:49;;;;;;;2.70;1.83;;;23.50;49.30;;;;;;4950147;28;20085;-79
2021/06/01 09:51:31;;;;;;;2.50;1.65;;;23.60;49.20;;;;;;4949481;29;20307;-80
2021/06/01 09:54:16;;;;;;;1.65;1.40;;;23.70;49.20;;;;;;4949809;28;20472;-79
2021/06/01 09:56:42;;;;;;;2.08;1.60;;;23.80;49.10;;;;;;4966568;28;20050;-80
2021/06/01 09:59:11;;;;;;;2.13;1.60;;;23.90;48.90;;;;;;4936016;29;20031;-79
2021/06/01 10:01:37;;;;;;;2.10;1.67;;;24.00;48.90;;;;;;4926103;29;20109;-80
2021/06/01 10:04:03;;;;;;;1.83;1.35;;;24.10;48.80;;;;;;4920322;29;20043;-80
2021/06/01 10:06:35;;;;;;;2.17;1.50;;;24.20;48.70;;;;;;4941234;28;20072;-81
2021/06/01 10:09:09;;;;;;;1.65;1.40;;;24.30;48.60;;;;;;4951403;28;20454;-84
2021/06/01 10:11:36;;;;;;;1.75;1.40;;;24.40;48.60;;;;;;4964133;28;20559;-83
2021/06/01 10:14:02;;;;;;;1.48;1.38;;;24.50;48.50;;;;;;4929798;29;20046;-82
2021/06/01 10:16:28;;;;;;;1.60;1.30;;;24.60;48.50;;;;;;4951175;28;20119;-83
2021/06/01 10:18:54;;;;;;;2.72;1.55;;;24.70;48.40;;;;;;4966048;28;20464;-85
2021/06/01 10:21:21;;;;;;;1.98;1.58;;;24.80;48.40;;;;;;4969932;28;20050;-83
2021/06/01 10:23:51;;;;;;;2.53;1.60;;;24.80;48.20;;;;;;4937778;28;20109;-83
2021/06/01 10:26:17;;;;;;;1.50;1.40;;;24.90;48.20;;;;;;4952350;28;20032;-81
2021/06/01 10:28:46;;;;;;;1.60;1.30;;;25.10;48.20;;;;;;4933089;29;20052;-83
2021/06/01 10:31:15;;;;;;;1.60;1.30;;;25.10;48.10;;;;;;4934154;29;20126;-83
2021/06/01 10:33:55;;;;;;;1.83;1.38;;;25.30;48.20;;;;;;4947588;28;20028;-83
2021/06/01 10:48:41;;;;;;;1.50;1.30;;;25.60;47.90;;;;;;4919283;29;20480;-84
2021/06/01 10:50:40;;;;;;;1.45;1.23;;;25.80;47.70;;;;;;4938886;29;20066;-83
2021/06/01 10:53:07;;;;;;;1.98;1.30;;;25.90;47.70;;;;;;4935987;29;20024;-84
2021/06/01 10:58:24;;;;;;;1.63;1.25;;;26.10;47.70;;;;;;4953336;29;20027;-81
2021/06/01 11:03:34;;;;;;;1.20;1.10;;;26.20;47.40;;;;;;4934848;29;20043;-82
2021/06/01 11:06:02;;;;;;;1.60;1.20;;;26.40;47.50;;;;;;4920233;29;20029;-81
2021/06/01 11:08:43;;;;;;;1.70;1.30;;;26.40;47.40;;;;;;4905317;29;20103;-83
2021/06/01 11:11:46;;;;;;;1.65;1.30;;;26.50;47.40;;;;;;4935506;29;20099;-81
2021/06/01 11:14:32;;;;;;;1.70;1.20;;;26.50;47.40;;;;;;4890277;29;20606;-82
2021/06/01 11:17:02;;;;;;;1.65;1.10;;;26.60;47.40;;;;;;4928500;29;20039;-83
2021/06/01 11:20:05;;;;;;;1.77;1.30;;;26.70;47.40;;;;;;4931545;29;20102;-82
2021/06/01 11:22:49;;;;;;;1.52;1.23;;;26.80;47.50;;;;;;4920625;29;20110;-82
2021/06/01 11:33:40;;;;;;;1.25;1.15;;;27.00;47.60;;;;;;4964251;28;20034;-82
2021/06/01 11:36:12;;;;;;;1.63;1.20;;;27.10;47.70;;;;;;4953084;28;20055;-84
2021/06/01 11:38:47;;;;;;;1.55;1.25;;;27.10;47.80;;;;;;4949288;28;20074;-82
2021/06/01 11:43:43;;;;;;;1.60;1.30;;;27.10;47.90;;;;;;4946121;28;20038;-84
2021/06/01 11:51:46;;;;;;;2.05;1.30;;;27.20;48.20;;;;;;4952385;28;20137;-85
2021/06/01 11:54:14;;;;;;;1.23;1.00;;;27.20;48.20;;;;;;4938401;28;20062;-85
2021/06/01 12:05:13;;;;;;;1.20;1.10;;;27.20;48.00;;;;;;4929413;28;20062;-84
2021/06/01 12:13:48;;;;;;;1.40;1.30;;;27.20;46.80;;;;;;4972185;28;20043;-84
2021/06/01 12:19:15;;;;;;;1.55;1.45;;;27.20;45.00;;;;;;4964663;28;20090;-82
2021/06/01 12:21:46;;;;;;;1.60;1.48;;;27.10;44.10;;;;;;4948034;28;20532;-82
2021/06/01 12:24:20;;;;;;;1.80;1.30;;;27.10;43.40;;;;;;4955747;28;20031;-84
2021/06/01 12:46:19;;;;;;;1.58;1.40;;;26.90;41.00;;;;;;4970894;28;20039;-85
2021/06/01 13:21:03;;;;;;;1.30;1.20;;;26.70;39.50;;;;;;4964715;28;20042;-85
2021/06/01 13:46:17;;;;;;;1.50;1.30;;;26.70;39.30;;;;;;4969715;28;20510;-90
2021/06/01 13:48:57;;;;;;;1.70;1.23;;;26.70;39.70;;;;;;4957309;28;20534;-90
2021/06/01 13:56:38;;;;;;;1.27;1.15;;;26.70;39.10;;;;;;4968297;28;20045;-78
2021/06/01 13:59:18;;;;;;;1.90;1.40;;;26.70;39.10;;;;;;4953965;28;20117;-80
2021/06/01 14:32:02;;;;;;;1.23;1.13;;;26.90;39.20;;;;;;4956649;28;20046;-80
2021/06/01 15:28:53;;;;;;;1.45;1.10;;;27.20;38.10;;;;;;4958130;28;20488;-81
2021/06/01 15:31:33;;;;;;;1.60;1.08;;;27.30;38.20;;;;;;4962895;28;20035;-82
2021/06/01 15:48:18;;;;;;;1.30;1.20;;;27.40;38.10;;;;;;4957534;28;20474;-82
2021/06/01 15:50:52;;;;;;;2.47;1.38;;;27.40;38.10;;;;;;4981022;28;20507;-84
2021/06/01 16:23:35;;;;;;;1.90;1.30;;;27.60;38.40;;;;;;4957841;28;20035;-82
2021/06/01 16:31:47;;;;;;;1.35;1.25;;;27.60;38.20;;;;;;4940394;28;20046;-83
2021/06/01 17:04:50;;;;;;;;;;;27.90;37.70;;;;;;4974095;28;20042;-83
2021/06/01 17:13:15;;;;;;;1.38;1.25;;;27.90;37.20;;;;;;4968723;28;20078;-88
2021/06/01 17:15:42;;;;;;;1.30;1.10;;;27.90;37.10;;;;;;4963806;28;20055;-86
2021/06/01 17:18:33;;;;;;;1.30;1.20;;;27.90;36.90;;;;;;4961286;28;20027;-89
2021/06/01 17:23:50;;;;;;;0.98;0.93;;;27.90;36.80;;;;;;4982284;28;20059;-89
2021/06/01 17:37:02;;;;;;;1.40;1.30;;;27.90;36.00;;;;;;4969966;28;20121;-86
2021/06/01 17:39:29;;;;;;;2.58;1.27;;;27.90;36.00;;;;;;4950332;28;20583;-88
2021/06/01 17:41:57;;;;;;;1.45;1.20;;;27.90;36.00;;;;;;4980082;28;20039;-84
2021/06/01 17:44:28;;;;;;;1.40;1.30;;;27.90;35.90;;;;;;4966879;28;20046;-85
2021/06/01 17:47:04;;;;;;;1.55;1.20;;;27.90;35.70;;;;;;4962200;28;20071;-82
2021/06/01 17:49:30;;;;;;;2.08;1.20;;;27.90;36.30;;;;;;4963902;28;20051;-85
2021/06/01 17:52:00;;;;;;;2.05;1.40;;;27.80;35.50;;;;;;4957050;28;20392;-85
2021/06/01 17:54:32;;;;;;;1.77;1.20;;;27.90;35.40;;;;;;4974801;28;20039;-89
2021/06/01 17:56:59;;;;;;;1.58;1.10;;;27.80;35.50;;;;;;4966758;28;20531;-85
2021/06/01 17:59:26;;;;;;;1.77;1.30;;;27.90;35.50;;;;;;4985474;28;20027;-87
2021/06/01 18:01:53;;;;;;;3.03;1.52;;;27.80;35.50;;;;;;4956213;28;20059;-85
2021/06/01 18:04:23;;;;;;;2.85;1.20;;;27.90;35.50;;;;;;4965194;28;20035;-86
2021/06/01 19:42:54;;;;;;;2.50;1.75;;;27.30;37.00;;;;;;4955864;28;20062;-83
2021/06/01 19:50:48;;;;;;;2.42;1.60;;;27.10;37.10;;;;;;4967456;28;20476;-83
2021/06/01 19:53:15;;;;;;;2.35;1.55;;;27.10;37.30;;;;;;4967731;28;20459;-84
2021/06/01 19:55:41;;;;;;;2.97;1.45;;;27.10;37.40;;;;;;4966024;28;20052;-83
2021/06/01 19:58:08;;;;;;;1.80;1.48;;;27.00;37.50;;;;;;4969217;28;20046;-84
2021/06/01 20:00:34;;;;;;;2.35;1.65;;;27.00;37.60;;;;;;4940386;28;20094;-84
2021/06/01 20:03:00;;;;;;;1.48;1.17;;;27.00;37.80;;;;;;4935178;28;20046;-84
2021/06/01 20:05:27;;;;;;;1.50;1.30;;;27.00;37.90;;;;;;4933221;28;20063;-84
2021/06/01 20:07:54;;;;;;;2.15;1.38;;;27.00;38.00;;;;;;4945818;28;20063;-83
2021/06/01 20:10:20;;;;;;;1.55;1.35;;;27.00;38.10;;;;;;4938979;28;20175;-84
2021/06/01 20:12:46;;;;;;;3.20;1.42;;;26.90;38.20;;;;;;4952231;28;20121;-84
2021/06/01 20:15:14;;;;;;;1.92;1.40;;;26.90;38.30;;;;;;4960902;28;20135;-86
2021/06/01 20:17:43;;;;;;;2.05;1.33;;;26.90;38.40;;;;;;4948138;28;20126;-86